sensor_id;sensor_type;location;lat;lon;timestamp;temperature;humidity
16408;DHT22;8313;49.894;8.084;2022-12-18T00:01:43;-3.00;99.90
16408;DHT22;8313;49.894;8.084;2022-12-18T00:04:23;-3.00;99.90
16408;DHT22;8313;49.894;8.084;2022-12-18T00:06:49;-2.90;99.90
16408;DHT22;8313;49.894;8.084;2022-12-18T00:09:15;-2.90;99.90
16408;DHT22;8313;49.894;8.084;2022-12-18T00:11:41;-3.00;99.90
16408;DHT22;8313;49.894;8.084;2022-12-18T00:14:08;-3.00;99.90
16408;DHT22;8313;49.894;8.084;2022-12-18T00:16:34;-2.90;99.90
16408;DHT22;8313;49.894;8.084;2022-12-18T00:19:03;-2.90;99.90
16408;DHT22;8313;49.894;8.084;2022-12-18T00:21:30;-2.90;99.90
16408;DHT22;8313;49.894;8.084;2022-12-18T00:23:57;-3.00;99.90
16408;DHT22;8313;49.894;8.084;2022-12-18T00:26:27;-3.00;99.90
16408;DHT22;8313;49.894;8.084;2022-12-18T00:29:02;-3.00;99.90
16408;DHT22;8313;49.894;8.084;2022-12-18T00:31:29;-3.00;99.90
16408;DHT22;8313;49.894;8.084;2022-12-18T00:33:55;-2.90;99.90
16408;DHT22;8313;49.894;8.084;2022-12-18T00:36:27;-2.90;99.90
16408;DHT22;8313;49.894;8.084;2022-12-18T00:38:54;-2.90;99.90
16408;DHT22;8313;49.894;8.084;2022-12-18T00:41:21;-2.90;99.90
16408;DHT22;8313;49.894;8.084;2022-12-18T00:44:07;-2.90;99.90
16408;DHT22;8313;49.894;8.084;2022-12-18T00:46:34;-2.90;99.90
16408;DHT22;8313;49.894;8.084;2022-12-18T00:49:00;-2.90;99.90
16408;DHT22;8313;49.894;8.084;2022-12-18T00:51:26;-3.00;99.90
16408;DHT22;8313;49.894;8.084;2022-12-18T00:53:52;-3.00;99.90
16408;DHT22;8313;49.894;8.084;2022-12-18T00:56:18;-3.00;99.90
16408;DHT22;8313;49.894;8.084;2022-12-18T00:58:46;-3.00;99.90
16408;DHT22;8313;49.894;8.084;2022-12-18T01:01:12;-2.90;99.90
16408;DHT22;8313;49.894;8.084;2022-12-18T01:03:37;-3.00;99.90
16408;DHT22;8313;49.894;8.084;2022-12-18T01:06:14;-3.00;99.90
16408;DHT22;8313;49.894;8.084;2022-12-18T01:08:40;-3.00;99.90
16408;DHT22;8313;49.894;8.084;2022-12-18T01:11:11;-3.00;99.90
16408;DHT22;8313;49.894;8.084;2022-12-18T01:13:38;-3.10;99.90
16408;DHT22;8313;49.894;8.084;2022-12-18T01:16:04;-3.10;99.90
16408;DHT22;8313;49.894;8.084;2022-12-18T01:18:30;-3.10;99.90
16408;DHT22;8313;49.894;8.084;2022-12-18T01:20:57;-3.10;99.90
16408;DHT22;8313;49.894;8.084;2022-12-18T01:23:26;-3.10;99.90
16408;DHT22;8313;49.894;8.084;2022-12-18T01:25:52;-3.10;99.90
16408;DHT22;8313;49.894;8.084;2022-12-18T01:28:18;-3.10;99.90
16408;DHT22;8313;49.894;8.084;2022-12-18T01:30:43;-3.10;99.90
16408;DHT22;8313;49.894;8.084;2022-12-18T01:33:09;-3.20;99.90
16408;DHT22;8313;49.894;8.084;2022-12-18T01:35:45;-3.20;99.90
16408;DHT22;8313;49.894;8.084;2022-12-18T01:38:10;-3.20;99.90
16408;DHT22;8313;49.894;8.084;2022-12-18T01:40:36;-3.20;99.90
16408;DHT22;8313;49.894;8.084;2022-12-18T01:43:02;-3.20;99.90
16408;DHT22;8313;49.894;8.084;2022-12-18T01:45:30;-3.20;99.90
16408;DHT22;8313;49.894;8.084;2022-12-18T01:48:03;-3.20;99.90
16408;DHT22;8313;49.894;8.084;2022-12-18T01:50:38;-3.20;99.90
16408;DHT22;8313;49.894;8.084;2022-12-18T01:53:20;-3.10;99.90
16408;DHT22;8313;49.894;8.084;2022-12-18T01:55:50;-3.20;99.90
16408;DHT22;8313;49.894;8.084;2022-12-18T01:58:17;-3.20;99.90
16408;DHT22;8313;49.894;8.084;2022-12-18T02:00:44;-3.30;99.90
16408;DHT22;8313;49.894;8.084;2022-12-18T02:03:09;-3.30;99.90
16408;DHT22;8313;49.894;8.084;2022-12-18T02:06:15;-3.30;99.90
16408;DHT22;8313;49.894;8.084;2022-12-18T02:11:32;-3.30;99.90
16408;DHT22;8313;49.894;8.084;2022-12-18T02:14:16;-3.30;99.90
16408;DHT22;8313;49.894;8.084;2022-12-18T02:19:58;-3.30;99.90
16408;DHT22;8313;49.894;8.084;2022-12-18T02:22:44;-3.30;99.90
16408;DHT22;8313;49.894;8.084;2022-12-18T02:28:07;-3.30;99.90
16408;DHT22;8313;49.894;8.084;2022-12-18T02:30:36;-3.30;99.90
16408;DHT22;8313;49.894;8.084;2022-12-18T02:33:06;-3.30;99.90
16408;DHT22;8313;49.894;8.084;2022-12-18T02:35:33;-3.30;99.90
16408;DHT22;8313;49.894;8.084;2022-12-18T02:38:02;-3.30;99.90
16408;DHT22;8313;49.894;8.084;2022-12-18T02:40:30;-3.40;99.90
16408;DHT22;8313;49.894;8.084;2022-12-18T02:43:09;-3.40;99.90
16408;DHT22;8313;49.894;8.084;2022-12-18T02:45:36;-3.50;99.90
16408;DHT22;8313;49.894;8.084;2022-12-18T02:48:03;-3.40;99.90
16408;DHT22;8313;49.894;8.084;2022-12-18T02:50:34;-3.40;99.90
16408;DHT22;8313;49.894;8.084;2022-12-18T03:01:33;-3.40;99.90
16408;DHT22;8313;49.894;8.084;2022-12-18T03:04:12;-3.50;99.90
16408;DHT22;8313;49.894;8.084;2022-12-18T03:06:43;-3.50;99.90
16408;DHT22;8313;49.894;8.084;2022-12-18T03:09:19;-3.40;99.90
16408;DHT22;8313;49.894;8.084;2022-12-18T03:11:53;-3.50;99.90
16408;DHT22;8313;49.894;8.084;2022-12-18T03:14:40;-3.40;99.90
16408;DHT22;8313;49.894;8.084;2022-12-18T03:17:11;-3.50;99.90
16408;DHT22;8313;49.894;8.084;2022-12-18T03:19:39;-3.50;99.90
16408;DHT22;8313;49.894;8.084;2022-12-18T03:22:07;-3.60;99.90
16408;DHT22;8313;49.894;8.084;2022-12-18T03:24:45;-3.60;99.90
16408;DHT22;8313;49.894;8.084;2022-12-18T03:27:15;-3.50;99.90
16408;DHT22;8313;49.894;8.084;2022-12-18T03:29:47;-3.50;99.90
16408;DHT22;8313;49.894;8.084;2022-12-18T03:32:26;-3.50;99.90
16408;DHT22;8313;49.894;8.084;2022-12-18T03:34:53;-3.60;99.90
16408;DHT22;8313;49.894;8.084;2022-12-18T03:37:22;-3.60;99.90
16408;DHT22;8313;49.894;8.084;2022-12-18T03:39:48;-3.60;99.90
16408;DHT22;8313;49.894;8.084;2022-12-18T03:42:32;-3.60;99.90
16408;DHT22;8313;49.894;8.084;2022-12-18T03:45:22;-3.60;99.90
16408;DHT22;8313;49.894;8.084;2022-12-18T03:48:03;-3.70;99.90
16408;DHT22;8313;49.894;8.084;2022-12-18T03:50:59;-3.70;99.90
16408;DHT22;8313;49.894;8.084;2022-12-18T03:53:58;-3.80;99.90
16408;DHT22;8313;49.894;8.084;2022-12-18T03:56:32;-3.70;99.90
16408;DHT22;8313;49.894;8.084;2022-12-18T03:59:02;-3.70;99.90
16408;DHT22;8313;49.894;8.084;2022-12-18T04:01:32;-3.70;99.90
16408;DHT22;8313;49.894;8.084;2022-12-18T04:04:00;-3.80;99.90
16408;DHT22;8313;49.894;8.084;2022-12-18T04:06:30;-3.80;99.90
16408;DHT22;8313;49.894;8.084;2022-12-18T04:08:57;-3.90;99.90
16408;DHT22;8313;49.894;8.084;2022-12-18T04:11:25;-3.90;99.90
16408;DHT22;8313;49.894;8.084;2022-12-18T04:13:55;-3.90;99.90
16408;DHT22;8313;49.894;8.084;2022-12-18T04:16:22;-3.90;99.90
16408;DHT22;8313;49.894;8.084;2022-12-18T04:18:52;-3.90;99.90
16408;DHT22;8313;49.894;8.084;2022-12-18T04:21:20;-3.90;99.90
16408;DHT22;8313;49.894;8.084;2022-12-18T04:23:47;-3.90;99.90
16408;DHT22;8313;49.894;8.084;2022-12-18T04:26:13;-4.00;99.90
16408;DHT22;8313;49.894;8.084;2022-12-18T04:28:50;-4.10;99.90
16408;DHT22;8313;49.894;8.084;2022-12-18T04:31:16;-4.10;99.90
16408;DHT22;8313;49.894;8.084;2022-12-18T04:33:42;-4.10;99.90
16408;DHT22;8313;49.894;8.084;2022-12-18T04:36:08;-4.10;99.90
16408;DHT22;8313;49.894;8.084;2022-12-18T04:38:34;-4.10;99.90
16408;DHT22;8313;49.894;8.084;2022-12-18T04:41:06;-4.10;99.90
16408;DHT22;8313;49.894;8.084;2022-12-18T04:43:32;-4.10;99.90
16408;DHT22;8313;49.894;8.084;2022-12-18T04:46:03;-4.20;99.90
16408;DHT22;8313;49.894;8.084;2022-12-18T04:48:29;-4.20;99.90
16408;DHT22;8313;49.894;8.084;2022-12-18T04:50:54;-4.20;99.90
16408;DHT22;8313;49.894;8.084;2022-12-18T04:53:20;-4.20;99.90
16408;DHT22;8313;49.894;8.084;2022-12-18T04:55:45;-4.20;99.90
16408;DHT22;8313;49.894;8.084;2022-12-18T04:58:12;-4.20;99.90
16408;DHT22;8313;49.894;8.084;2022-12-18T05:00:38;-4.20;99.90
16408;DHT22;8313;49.894;8.084;2022-12-18T05:03:03;-4.30;99.90
16408;DHT22;8313;49.894;8.084;2022-12-18T05:05:29;-4.30;99.90
16408;DHT22;8313;49.894;8.084;2022-12-18T05:07:55;-4.30;99.90
16408;DHT22;8313;49.894;8.084;2022-12-18T05:10:20;-4.30;99.90
16408;DHT22;8313;49.894;8.084;2022-12-18T05:12:46;-4.30;99.90
16408;DHT22;8313;49.894;8.084;2022-12-18T05:15:32;-4.30;99.90
16408;DHT22;8313;49.894;8.084;2022-12-18T05:17:58;-4.40;99.90
16408;DHT22;8313;49.894;8.084;2022-12-18T05:20:24;-4.40;99.90
16408;DHT22;8313;49.894;8.084;2022-12-18T05:22:51;-4.40;99.90
16408;DHT22;8313;49.894;8.084;2022-12-18T05:25:17;-4.50;99.90
16408;DHT22;8313;49.894;8.084;2022-12-18T05:27:43;-4.50;99.90
16408;DHT22;8313;49.894;8.084;2022-12-18T05:30:09;-4.50;99.90
16408;DHT22;8313;49.894;8.084;2022-12-18T05:32:35;-4.50;99.90
16408;DHT22;8313;49.894;8.084;2022-12-18T05:35:01;-4.50;99.90
16408;DHT22;8313;49.894;8.084;2022-12-18T05:37:27;-4.50;99.90
16408;DHT22;8313;49.894;8.084;2022-12-18T05:39:52;-4.50;99.90
16408;DHT22;8313;49.894;8.084;2022-12-18T05:42:18;-4.50;99.90
16408;DHT22;8313;49.894;8.084;2022-12-18T05:44:44;-4.50;99.90
16408;DHT22;8313;49.894;8.084;2022-12-18T05:47:09;-4.50;99.90
16408;DHT22;8313;49.894;8.084;2022-12-18T05:49:35;-4.50;99.90
16408;DHT22;8313;49.894;8.084;2022-12-18T05:52:01;-4.50;99.90
16408;DHT22;8313;49.894;8.084;2022-12-18T05:54:27;-4.50;99.90
16408;DHT22;8313;49.894;8.084;2022-12-18T05:56:53;-4.60;99.90
16408;DHT22;8313;49.894;8.084;2022-12-18T05:59:19;-4.60;99.90
16408;DHT22;8313;49.894;8.084;2022-12-18T06:01:45;-4.60;99.90
16408;DHT22;8313;49.894;8.084;2022-12-18T06:04:11;-4.60;99.90
16408;DHT22;8313;49.894;8.084;2022-12-18T06:06:37;-4.60;99.90
16408;DHT22;8313;49.894;8.084;2022-12-18T06:09:03;-4.60;99.90
16408;DHT22;8313;49.894;8.084;2022-12-18T06:11:34;-4.70;99.90
16408;DHT22;8313;49.894;8.084;2022-12-18T06:14:00;-4.70;99.90
16408;DHT22;8313;49.894;8.084;2022-12-18T06:16:30;-4.70;99.90
16408;DHT22;8313;49.894;8.084;2022-12-18T06:19:00;-4.70;99.90
16408;DHT22;8313;49.894;8.084;2022-12-18T06:21:26;-4.70;99.90
16408;DHT22;8313;49.894;8.084;2022-12-18T06:23:52;-4.70;99.90
16408;DHT22;8313;49.894;8.084;2022-12-18T06:26:18;-4.70;99.90
16408;DHT22;8313;49.894;8.084;2022-12-18T06:28:44;-4.80;99.90
16408;DHT22;8313;49.894;8.084;2022-12-18T06:31:10;-4.80;99.90
16408;DHT22;8313;49.894;8.084;2022-12-18T06:33:36;-4.80;99.90
16408;DHT22;8313;49.894;8.084;2022-12-18T06:36:05;-4.80;99.90
16408;DHT22;8313;49.894;8.084;2022-12-18T06:38:32;-4.80;99.90
16408;DHT22;8313;49.894;8.084;2022-12-18T06:40:58;-4.80;99.90
16408;DHT22;8313;49.894;8.084;2022-12-18T06:43:23;-4.80;99.90
16408;DHT22;8313;49.894;8.084;2022-12-18T06:45:49;-4.90;99.90
16408;DHT22;8313;49.894;8.084;2022-12-18T06:48:19;-4.90;99.90
16408;DHT22;8313;49.894;8.084;2022-12-18T06:50:45;-5.00;99.90
16408;DHT22;8313;49.894;8.084;2022-12-18T06:53:11;-4.90;99.90
16408;DHT22;8313;49.894;8.084;2022-12-18T06:55:37;-5.00;99.90
16408;DHT22;8313;49.894;8.084;2022-12-18T06:58:02;-5.00;99.90
16408;DHT22;8313;49.894;8.084;2022-12-18T07:00:28;-4.90;99.90
16408;DHT22;8313;49.894;8.084;2022-12-18T07:02:54;-4.90;99.90
16408;DHT22;8313;49.894;8.084;2022-12-18T07:05:19;-4.90;99.90
16408;DHT22;8313;49.894;8.084;2022-12-18T07:07:45;-4.90;99.90
16408;DHT22;8313;49.894;8.084;2022-12-18T07:10:11;-4.90;99.90
16408;DHT22;8313;49.894;8.084;2022-12-18T07:12:36;-4.90;99.90
16408;DHT22;8313;49.894;8.084;2022-12-18T07:15:02;-5.00;99.90
16408;DHT22;8313;49.894;8.084;2022-12-18T07:17:28;-5.00;99.90
16408;DHT22;8313;49.894;8.084;2022-12-18T07:19:55;-5.00;99.90
16408;DHT22;8313;49.894;8.084;2022-12-18T07:22:20;-5.00;99.90
16408;DHT22;8313;49.894;8.084;2022-12-18T07:24:49;-5.00;99.90
16408;DHT22;8313;49.894;8.084;2022-12-18T07:27:15;-5.00;99.90
16408;DHT22;8313;49.894;8.084;2022-12-18T07:29:40;-5.00;99.90
16408;DHT22;8313;49.894;8.084;2022-12-18T07:32:06;-5.00;99.90
16408;DHT22;8313;49.894;8.084;2022-12-18T07:34:32;-5.00;99.90
16408;DHT22;8313;49.894;8.084;2022-12-18T07:36:58;-5.00;99.90
16408;DHT22;8313;49.894;8.084;2022-12-18T07:39:24;-5.00;99.90
16408;DHT22;8313;49.894;8.084;2022-12-18T07:41:49;-5.00;99.90
16408;DHT22;8313;49.894;8.084;2022-12-18T07:44:35;-5.00;99.90
16408;DHT22;8313;49.894;8.084;2022-12-18T07:47:01;-5.10;99.90
16408;DHT22;8313;49.894;8.084;2022-12-18T07:49:27;-5.20;99.90
16408;DHT22;8313;49.894;8.084;2022-12-18T07:51:55;-5.10;99.90
16408;DHT22;8313;49.894;8.084;2022-12-18T07:54:22;-5.10;99.90
16408;DHT22;8313;49.894;8.084;2022-12-18T07:56:48;-5.10;99.90
16408;DHT22;8313;49.894;8.084;2022-12-18T07:59:14;-5.00;99.90
16408;DHT22;8313;49.894;8.084;2022-12-18T08:01:40;-5.00;99.90
16408;DHT22;8313;49.894;8.084;2022-12-18T08:04:05;-5.00;99.90
16408;DHT22;8313;49.894;8.084;2022-12-18T08:06:31;-5.00;99.90
16408;DHT22;8313;49.894;8.084;2022-12-18T08:08:57;-5.00;99.90
16408;DHT22;8313;49.894;8.084;2022-12-18T08:11:24;-5.00;99.90
16408;DHT22;8313;49.894;8.084;2022-12-18T08:13:51;-5.00;99.90
16408;DHT22;8313;49.894;8.084;2022-12-18T08:16:17;-5.00;99.90
16408;DHT22;8313;49.894;8.084;2022-12-18T08:18:43;-5.00;99.90
16408;DHT22;8313;49.894;8.084;2022-12-18T08:21:13;-5.00;99.90
16408;DHT22;8313;49.894;8.084;2022-12-18T08:23:39;-5.00;99.90
16408;DHT22;8313;49.894;8.084;2022-12-18T08:26:05;-5.00;99.90
16408;DHT22;8313;49.894;8.084;2022-12-18T08:28:31;-4.90;99.90
16408;DHT22;8313;49.894;8.084;2022-12-18T08:30:57;-4.90;99.90
16408;DHT22;8313;49.894;8.084;2022-12-18T08:33:22;-4.90;99.90
16408;DHT22;8313;49.894;8.084;2022-12-18T08:35:48;-4.90;99.90
16408;DHT22;8313;49.894;8.084;2022-12-18T08:38:13;-4.80;99.90
16408;DHT22;8313;49.894;8.084;2022-12-18T08:40:39;-4.80;99.90
16408;DHT22;8313;49.894;8.084;2022-12-18T08:43:05;-4.80;99.90
16408;DHT22;8313;49.894;8.084;2022-12-18T08:45:49;-4.70;99.90
16408;DHT22;8313;49.894;8.084;2022-12-18T08:48:14;-4.70;99.90
16408;DHT22;8313;49.894;8.084;2022-12-18T08:50:40;-4.70;99.90
16408;DHT22;8313;49.894;8.084;2022-12-18T08:53:06;-4.70;99.90
16408;DHT22;8313;49.894;8.084;2022-12-18T08:55:32;-4.70;99.90
16408;DHT22;8313;49.894;8.084;2022-12-18T08:57:57;-4.60;99.90
16408;DHT22;8313;49.894;8.084;2022-12-18T09:00:23;-4.60;99.90
16408;DHT22;8313;49.894;8.084;2022-12-18T09:02:49;-4.60;99.90
16408;DHT22;8313;49.894;8.084;2022-12-18T09:05:14;-4.60;99.90
16408;DHT22;8313;49.894;8.084;2022-12-18T09:07:40;-4.50;99.90
16408;DHT22;8313;49.894;8.084;2022-12-18T09:10:06;-4.50;99.90
16408;DHT22;8313;49.894;8.084;2022-12-18T09:12:32;-4.40;99.90
16408;DHT22;8313;49.894;8.084;2022-12-18T09:14:57;-4.40;99.90
16408;DHT22;8313;49.894;8.084;2022-12-18T09:17:23;-4.40;99.90
16408;DHT22;8313;49.894;8.084;2022-12-18T09:19:49;-4.30;99.90
16408;DHT22;8313;49.894;8.084;2022-12-18T09:22:14;-4.40;99.90
16408;DHT22;8313;49.894;8.084;2022-12-18T09:24:40;-4.30;99.90
16408;DHT22;8313;49.894;8.084;2022-12-18T09:27:06;-4.30;99.90
16408;DHT22;8313;49.894;8.084;2022-12-18T09:29:32;-4.30;99.90
16408;DHT22;8313;49.894;8.084;2022-12-18T09:31:58;-4.30;99.90
16408;DHT22;8313;49.894;8.084;2022-12-18T09:34:23;-4.30;99.90
16408;DHT22;8313;49.894;8.084;2022-12-18T09:36:50;-4.30;99.90
16408;DHT22;8313;49.894;8.084;2022-12-18T09:39:15;-4.30;99.90
16408;DHT22;8313;49.894;8.084;2022-12-18T09:49:23;-4.20;99.90
16408;DHT22;8313;49.894;8.084;2022-12-18T09:54:24;-4.10;99.90
16408;DHT22;8313;49.894;8.084;2022-12-18T09:56:51;-4.10;99.90
16408;DHT22;8313;49.894;8.084;2022-12-18T09:59:48;-4.00;99.90
16408;DHT22;8313;49.894;8.084;2022-12-18T10:02:19;-3.90;99.90
16408;DHT22;8313;49.894;8.084;2022-12-18T10:10:47;-3.80;99.90
16408;DHT22;8313;49.894;8.084;2022-12-18T10:13:22;-3.70;99.90
16408;DHT22;8313;49.894;8.084;2022-12-18T10:16:26;-3.70;99.90
16408;DHT22;8313;49.894;8.084;2022-12-18T10:21:26;-3.70;99.90
16408;DHT22;8313;49.894;8.084;2022-12-18T10:26:37;-3.60;99.90
16408;DHT22;8313;49.894;8.084;2022-12-18T10:29:10;-3.60;99.90
16408;DHT22;8313;49.894;8.084;2022-12-18T10:31:37;-3.60;99.90
16408;DHT22;8313;49.894;8.084;2022-12-18T10:34:03;-3.60;99.90
16408;DHT22;8313;49.894;8.084;2022-12-18T10:36:28;-3.60;99.90
16408;DHT22;8313;49.894;8.084;2022-12-18T10:39:14;-3.50;99.90
16408;DHT22;8313;49.894;8.084;2022-12-18T10:41:40;-3.40;99.90
16408;DHT22;8313;49.894;8.084;2022-12-18T10:44:22;-3.40;99.90
16408;DHT22;8313;49.894;8.084;2022-12-18T10:46:51;-3.30;99.90
16408;DHT22;8313;49.894;8.084;2022-12-18T10:49:25;-3.30;99.90
16408;DHT22;8313;49.894;8.084;2022-12-18T10:52:05;-3.30;99.90
16408;DHT22;8313;49.894;8.084;2022-12-18T10:54:32;-3.30;99.90
16408;DHT22;8313;49.894;8.084;2022-12-18T11:02:46;-3.20;99.90
16408;DHT22;8313;49.894;8.084;2022-12-18T11:05:32;-3.20;99.90
16408;DHT22;8313;49.894;8.084;2022-12-18T11:07:59;-3.10;99.90
16408;DHT22;8313;49.894;8.084;2022-12-18T11:12:53;-3.00;99.90
16408;DHT22;8313;49.894;8.084;2022-12-18T11:15:23;-3.00;99.90
16408;DHT22;8313;49.894;8.084;2022-12-18T11:17:51;-2.90;99.90
16408;DHT22;8313;49.894;8.084;2022-12-18T11:20:31;-2.90;99.90
16408;DHT22;8313;49.894;8.084;2022-12-18T11:23:12;-2.90;99.90
16408;DHT22;8313;49.894;8.084;2022-12-18T11:25:38;-2.90;99.90
16408;DHT22;8313;49.894;8.084;2022-12-18T11:28:05;-2.80;99.90
16408;DHT22;8313;49.894;8.084;2022-12-18T11:33:42;-2.80;99.90
16408;DHT22;8313;49.894;8.084;2022-12-18T11:36:10;-2.80;99.90
16408;DHT22;8313;49.894;8.084;2022-12-18T11:38:40;-2.80;99.90
16408;DHT22;8313;49.894;8.084;2022-12-18T11:50:17;-2.60;99.90
16408;DHT22;8313;49.894;8.084;2022-12-18T11:52:44;-2.70;99.90
16408;DHT22;8313;49.894;8.084;2022-12-18T11:55:37;-2.60;99.90
16408;DHT22;8313;49.894;8.084;2022-12-18T11:58:14;-2.60;99.90
16408;DHT22;8313;49.894;8.084;2022-12-18T12:00:49;-2.60;99.90
16408;DHT22;8313;49.894;8.084;2022-12-18T12:03:47;-2.60;99.90
16408;DHT22;8313;49.894;8.084;2022-12-18T12:17:02;-2.60;99.90
16408;DHT22;8313;49.894;8.084;2022-12-18T12:19:38;-2.60;99.90
16408;DHT22;8313;49.894;8.084;2022-12-18T12:22:23;-2.60;99.90
16408;DHT22;8313;49.894;8.084;2022-12-18T12:25:18;-2.60;99.90
16408;DHT22;8313;49.894;8.084;2022-12-18T12:27:57;-2.50;99.90
16408;DHT22;8313;49.894;8.084;2022-12-18T12:31:13;-2.60;99.90
16408;DHT22;8313;49.894;8.084;2022-12-18T12:37:17;-2.50;99.90
16408;DHT22;8313;49.894;8.084;2022-12-18T12:39:27;-2.50;99.90
16408;DHT22;8313;49.894;8.084;2022-12-18T12:41:57;-2.40;99.90
16408;DHT22;8313;49.894;8.084;2022-12-18T12:44:48;-2.50;99.90
16408;DHT22;8313;49.894;8.084;2022-12-18T12:47:42;-2.50;99.90
16408;DHT22;8313;49.894;8.084;2022-12-18T12:50:16;-2.50;99.90
16408;DHT22;8313;49.894;8.084;2022-12-18T12:52:46;-2.50;99.90
16408;DHT22;8313;49.894;8.084;2022-12-18T12:55:17;-2.40;99.90
16408;DHT22;8313;49.894;8.084;2022-12-18T13:00:22;-2.40;99.90
16408;DHT22;8313;49.894;8.084;2022-12-18T13:03:08;-2.40;99.90
16408;DHT22;8313;49.894;8.084;2022-12-18T13:08:12;-2.40;99.90
16408;DHT22;8313;49.894;8.084;2022-12-18T13:10:50;-2.40;99.90
16408;DHT22;8313;49.894;8.084;2022-12-18T13:13:55;-2.40;99.90
16408;DHT22;8313;49.894;8.084;2022-12-18T13:16:23;-2.40;99.90
16408;DHT22;8313;49.894;8.084;2022-12-18T13:18:57;-2.40;99.90
16408;DHT22;8313;49.894;8.084;2022-12-18T13:21:32;-2.40;99.90
16408;DHT22;8313;49.894;8.084;2022-12-18T13:24:15;-2.50;99.90
16408;DHT22;8313;49.894;8.084;2022-12-18T13:26:47;-2.40;99.90
16408;DHT22;8313;49.894;8.084;2022-12-18T13:29:40;-2.40;99.90
16408;DHT22;8313;49.894;8.084;2022-12-18T13:32:33;-2.30;99.90
16408;DHT22;8313;49.894;8.084;2022-12-18T13:37:50;-2.30;99.90
16408;DHT22;8313;49.894;8.084;2022-12-18T13:40:53;-2.30;99.90
16408;DHT22;8313;49.894;8.084;2022-12-18T13:45:58;-2.40;99.90
16408;DHT22;8313;49.894;8.084;2022-12-18T13:48:26;-2.30;99.90
16408;DHT22;8313;49.894;8.084;2022-12-18T13:50:57;-2.30;99.90
16408;DHT22;8313;49.894;8.084;2022-12-18T13:56:05;-2.20;99.90
16408;DHT22;8313;49.894;8.084;2022-12-18T13:58:31;-2.20;99.90
16408;DHT22;8313;49.894;8.084;2022-12-18T14:00:58;-2.20;99.90
16408;DHT22;8313;49.894;8.084;2022-12-18T14:03:27;-2.20;99.90
16408;DHT22;8313;49.894;8.084;2022-12-18T14:05:59;-2.20;99.90
16408;DHT22;8313;49.894;8.084;2022-12-18T14:08:33;-2.10;99.90
16408;DHT22;8313;49.894;8.084;2022-12-18T14:11:01;-2.10;99.90
16408;DHT22;8313;49.894;8.084;2022-12-18T14:13:34;-2.10;99.90
16408;DHT22;8313;49.894;8.084;2022-12-18T14:16:04;-2.10;99.90
16408;DHT22;8313;49.894;8.084;2022-12-18T14:18:43;-2.10;99.90
16408;DHT22;8313;49.894;8.084;2022-12-18T14:21:19;-2.10;99.90
16408;DHT22;8313;49.894;8.084;2022-12-18T14:23:46;-2.10;99.90
16408;DHT22;8313;49.894;8.084;2022-12-18T14:26:32;-2.00;99.90
16408;DHT22;8313;49.894;8.084;2022-12-18T14:29:01;-2.10;99.90
16408;DHT22;8313;49.894;8.084;2022-12-18T14:31:42;-2.10;99.90
16408;DHT22;8313;49.894;8.084;2022-12-18T14:34:17;-2.00;99.90
16408;DHT22;8313;49.894;8.084;2022-12-18T14:36:55;-2.00;99.90
16408;DHT22;8313;49.894;8.084;2022-12-18T14:39:21;-2.00;99.90
16408;DHT22;8313;49.894;8.084;2022-12-18T14:41:51;-2.00;99.90
16408;DHT22;8313;49.894;8.084;2022-12-18T14:44:17;-2.00;99.90
16408;DHT22;8313;49.894;8.084;2022-12-18T14:46:47;-2.00;99.90
16408;DHT22;8313;49.894;8.084;2022-12-18T14:49:30;-2.00;99.90
16408;DHT22;8313;49.894;8.084;2022-12-18T14:52:01;-2.00;99.90
16408;DHT22;8313;49.894;8.084;2022-12-18T14:54:29;-1.90;99.90
16408;DHT22;8313;49.894;8.084;2022-12-18T14:59:30;-2.00;99.90
16408;DHT22;8313;49.894;8.084;2022-12-18T15:02:25;-2.00;99.90
16408;DHT22;8313;49.894;8.084;2022-12-18T15:07:50;-1.90;99.90
16408;DHT22;8313;49.894;8.084;2022-12-18T15:10:19;-1.90;99.90
16408;DHT22;8313;49.894;8.084;2022-12-18T15:23:20;-1.90;99.90
16408;DHT22;8313;49.894;8.084;2022-12-18T15:25:58;-1.90;99.90
16408;DHT22;8313;49.894;8.084;2022-12-18T15:28:58;-1.90;99.90
16408;DHT22;8313;49.894;8.084;2022-12-18T15:31:32;-1.90;99.90
16408;DHT22;8313;49.894;8.084;2022-12-18T15:34:17;-1.90;99.90
16408;DHT22;8313;49.894;8.084;2022-12-18T15:36:44;-1.90;99.90
16408;DHT22;8313;49.894;8.084;2022-12-18T15:39:11;-1.90;99.90
16408;DHT22;8313;49.894;8.084;2022-12-18T15:41:38;-1.90;99.90
16408;DHT22;8313;49.894;8.084;2022-12-18T15:44:22;-1.80;99.90
16408;DHT22;8313;49.894;8.084;2022-12-18T15:46:48;-1.80;99.90
16408;DHT22;8313;49.894;8.084;2022-12-18T15:49:13;-1.80;99.90
16408;DHT22;8313;49.894;8.084;2022-12-18T15:51:39;-1.80;99.90
16408;DHT22;8313;49.894;8.084;2022-12-18T15:54:10;-1.80;99.90
16408;DHT22;8313;49.894;8.084;2022-12-18T15:56:37;-1.80;99.90
16408;DHT22;8313;49.894;8.084;2022-12-18T15:59:22;-1.80;99.90
16408;DHT22;8313;49.894;8.084;2022-12-18T16:01:50;-1.80;99.90
16408;DHT22;8313;49.894;8.084;2022-12-18T16:04:19;-1.80;99.90
16408;DHT22;8313;49.894;8.084;2022-12-18T16:06:46;-1.80;99.90
16408;DHT22;8313;49.894;8.084;2022-12-18T16:09:12;-1.80;99.90
16408;DHT22;8313;49.894;8.084;2022-12-18T16:11:41;-1.80;99.90
16408;DHT22;8313;49.894;8.084;2022-12-18T16:14:24;-1.80;99.90
16408;DHT22;8313;49.894;8.084;2022-12-18T16:16:55;-1.80;99.90
16408;DHT22;8313;49.894;8.084;2022-12-18T16:19:21;-1.80;99.90
16408;DHT22;8313;49.894;8.084;2022-12-18T16:21:48;-1.80;99.90
16408;DHT22;8313;49.894;8.084;2022-12-18T16:24:20;-1.80;99.90
16408;DHT22;8313;49.894;8.084;2022-12-18T16:26:50;-1.70;99.90
16408;DHT22;8313;49.894;8.084;2022-12-18T16:29:23;-1.80;99.90
16408;DHT22;8313;49.894;8.084;2022-12-18T16:31:58;-1.80;99.90
16408;DHT22;8313;49.894;8.084;2022-12-18T16:34:32;-1.80;99.90
16408;DHT22;8313;49.894;8.084;2022-12-18T16:37:01;-1.80;99.90
16408;DHT22;8313;49.894;8.084;2022-12-18T16:39:27;-1.80;99.90
16408;DHT22;8313;49.894;8.084;2022-12-18T16:41:53;-1.80;99.90
16408;DHT22;8313;49.894;8.084;2022-12-18T16:44:19;-1.80;99.90
16408;DHT22;8313;49.894;8.084;2022-12-18T16:46:46;-1.80;99.90
16408;DHT22;8313;49.894;8.084;2022-12-18T16:49:14;-1.80;99.90
16408;DHT22;8313;49.894;8.084;2022-12-18T16:51:40;-1.80;99.90
16408;DHT22;8313;49.894;8.084;2022-12-18T16:54:06;-1.80;99.90
16408;DHT22;8313;49.894;8.084;2022-12-18T16:56:32;-1.80;99.90
16408;DHT22;8313;49.894;8.084;2022-12-18T16:58:59;-1.80;99.90
16408;DHT22;8313;49.894;8.084;2022-12-18T17:01:27;-1.80;99.90
16408;DHT22;8313;49.894;8.084;2022-12-18T17:03:59;-1.80;99.90
16408;DHT22;8313;49.894;8.084;2022-12-18T17:06:26;-1.80;99.90
16408;DHT22;8313;49.894;8.084;2022-12-18T17:09:00;-1.80;99.90
16408;DHT22;8313;49.894;8.084;2022-12-18T17:11:28;-1.80;99.90
16408;DHT22;8313;49.894;8.084;2022-12-18T17:13:54;-1.80;99.90
16408;DHT22;8313;49.894;8.084;2022-12-18T17:16:21;-1.80;99.90
16408;DHT22;8313;49.894;8.084;2022-12-18T17:18:47;-1.70;99.90
16408;DHT22;8313;49.894;8.084;2022-12-18T17:21:13;-1.80;99.90
16408;DHT22;8313;49.894;8.084;2022-12-18T17:23:43;-1.70;99.90
16408;DHT22;8313;49.894;8.084;2022-12-18T17:26:10;-1.70;99.90
16408;DHT22;8313;49.894;8.084;2022-12-18T17:28:37;-1.70;99.90
16408;DHT22;8313;49.894;8.084;2022-12-18T17:31:17;-1.70;99.90
16408;DHT22;8313;49.894;8.084;2022-12-18T17:33:43;-1.70;99.90
16408;DHT22;8313;49.894;8.084;2022-12-18T17:36:09;-1.70;99.90
16408;DHT22;8313;49.894;8.084;2022-12-18T17:38:36;-1.70;99.90
16408;DHT22;8313;49.894;8.084;2022-12-18T17:41:03;-1.70;99.90
16408;DHT22;8313;49.894;8.084;2022-12-18T17:43:29;-1.70;99.90
16408;DHT22;8313;49.894;8.084;2022-12-18T17:45:55;-1.70;99.90
16408;DHT22;8313;49.894;8.084;2022-12-18T17:48:22;-1.70;99.90